createdAt,value
2023-11-19T00:00:53.190Z,9.745353
2023-11-19T00:01:47.112Z,9.745332
2023-11-19T00:02:45.188Z,9.745292
2023-11-19T00:03:45.052Z,9.745602
2023-11-19T00:04:45.109Z,9.745389
2023-11-19T00:05:45.060Z,9.745459
2023-11-19T00:06:46.029Z,9.745440
2023-11-19T00:07:45.039Z,9.745281
2023-11-19T00:08:45.018Z,9.745371
2023-11-19T00:09:45.035Z,9.745417
2023-11-19T00:10:45.024Z,9.745693
2023-11-19T00:11:54.213Z,9.745712
2023-11-19T00:12:46.980Z,9.745654
2023-11-19T00:13:44.986Z,9.745383
2023-11-19T00:14:45.003Z,9.745111
2023-11-19T00:15:44.957Z,9.745296
2023-11-19T00:16:44.954Z,9.745324
2023-11-19T00:17:45.000Z,9.745463
2023-11-19T00:18:44.963Z,9.745491
2023-11-19T00:19:45.040Z,9.745289
2023-11-19T00:20:44.924Z,9.745456
2023-11-19T00:21:44.910Z,9.745510
2023-11-19T00:23:45.928Z,9.745331
2023-11-19T00:24:44.916Z,9.745338
2023-11-19T00:25:44.882Z,9.745320
2023-11-19T00:26:44.862Z,9.745110
2023-11-19T00:27:44.862Z,9.745225
2023-11-19T00:28:44.910Z,9.745487
2023-11-19T00:29:44.849Z,9.745411
2023-11-19T00:30:44.844Z,9.745397
2023-11-19T00:31:44.890Z,9.745329
2023-11-19T00:32:44.822Z,9.745712
2023-11-19T00:34:45.820Z,9.745413
2023-11-19T00:35:44.805Z,9.745646
2023-11-19T00:36:44.795Z,9.745127
2023-11-19T00:37:44.815Z,9.745171
2023-11-19T00:38:44.796Z,9.744988
2023-11-19T00:39:44.781Z,9.745373
2023-11-19T00:40:44.763Z,9.745358
2023-11-19T00:41:44.803Z,9.745364
2023-11-19T00:42:44.763Z,9.745273
2023-11-19T00:43:44.729Z,9.745253
2023-11-19T00:44:51.209Z,9.745420
2023-11-19T00:45:46.723Z,9.745388
2023-11-19T00:46:44.776Z,9.745167
2023-11-19T00:47:44.762Z,9.745373
2023-11-19T00:48:44.689Z,9.745278
2023-11-19T00:49:44.685Z,9.745440
2023-11-19T00:50:44.676Z,9.745400
2023-11-19T00:51:44.700Z,9.745538
2023-11-19T00:52:44.698Z,9.745546
2023-11-19T00:53:44.655Z,9.745630
2023-11-19T00:54:44.651Z,9.745595
2023-11-19T00:55:47.733Z,9.745503
2023-11-19T00:56:45.670Z,9.745272
2023-11-19T00:57:44.631Z,9.745574
2023-11-19T00:58:44.621Z,9.745543
2023-11-19T00:59:44.632Z,9.745559
2023-11-19T01:00:44.606Z,9.745661
2023-11-19T01:01:44.634Z,9.745620
2023-11-19T01:02:44.699Z,9.745562
2023-11-19T01:03:44.865Z,9.745458
2023-11-19T01:04:44.636Z,9.745520
2023-11-19T01:05:44.601Z,9.745373
2023-11-19T01:07:45.569Z,9.745328
2023-11-19T01:08:44.550Z,9.745250
2023-11-19T01:09:44.543Z,9.745468
2023-11-19T01:10:44.562Z,9.745783
2023-11-19T01:11:44.533Z,9.745563
2023-11-19T01:12:44.525Z,9.745494
2023-11-19T01:13:44.520Z,9.745625
2023-11-19T01:14:44.500Z,9.745519
2023-11-19T01:15:44.580Z,9.745430
2023-11-19T01:16:44.559Z,9.745622
2023-11-19T01:17:52.778Z,9.745298
2023-11-19T01:18:46.539Z,9.745554
2023-11-19T01:19:44.525Z,9.745427
2023-11-19T01:20:44.516Z,9.745415
2023-11-19T01:21:44.454Z,9.745341
2023-11-19T01:22:44.454Z,9.745341
2023-11-19T01:23:44.444Z,9.745365
2023-11-19T01:24:44.458Z,9.745290
2023-11-19T01:25:44.423Z,9.745204
2023-11-19T01:26:44.489Z,9.745539
2023-11-19T01:27:44.408Z,9.745717
2023-11-19T01:29:45.412Z,9.745627
2023-11-19T01:30:44.376Z,9.745444
2023-11-19T01:31:44.374Z,9.745106
2023-11-19T01:32:44.443Z,9.744906
2023-11-19T01:33:44.389Z,9.744925
2023-11-19T01:34:44.471Z,9.745139
2023-11-19T01:35:44.341Z,9.745154
2023-11-19T01:36:44.334Z,9.745168
2023-11-19T01:37:44.326Z,9.745187
2023-11-19T01:38:44.341Z,9.745440
2023-11-19T01:39:44.310Z,9.745416
2023-11-19T01:40:44.321Z,9.745270
2023-11-19T01:41:44.300Z,9.745218
2023-11-19T01:42:44.280Z,9.745338
2023-11-19T01:43:44.314Z,9.745607
2023-11-19T01:44:44.280Z,9.745544
2023-11-19T01:45:44.291Z,9.745485
2023-11-19T01:46:44.315Z,9.745383
2023-11-19T01:47:44.269Z,9.745299
2023-11-19T01:48:44.263Z,9.745275
2023-11-19T01:49:44.232Z,9.745499
2023-11-19T01:50:44.227Z,9.745490
2023-11-19T01:51:44.216Z,9.745410
2023-11-19T01:52:44.228Z,9.745253
2023-11-19T01:53:44.204Z,9.745378
2023-11-19T01:54:44.189Z,9.745449
2023-11-19T01:55:44.185Z,9.745269
2023-11-19T01:56:44.221Z,9.745199
2023-11-19T01:58:16.192Z,9.745106
2023-11-19T01:58:44.172Z,9.745135
2023-11-19T01:59:44.150Z,9.745291
2023-11-19T02:00:44.155Z,9.745378
2023-11-19T02:01:44.307Z,9.745254
2023-11-19T02:02:44.455Z,9.745381
2023-11-19T02:03:44.303Z,9.745468
2023-11-19T02:04:44.215Z,9.745475
2023-11-19T02:05:44.106Z,9.745784
2023-11-19T02:06:44.126Z,9.745718
2023-11-19T02:07:44.101Z,9.745599
2023-11-19T02:08:44.086Z,9.745539
2023-11-19T02:09:44.082Z,9.745503
2023-11-19T02:10:44.075Z,9.745562
2023-11-19T02:11:44.093Z,9.745555
2023-11-19T02:12:44.133Z,9.745473
2023-11-19T02:13:44.058Z,9.745482
2023-11-19T02:14:44.063Z,9.745486
2023-11-19T02:15:44.079Z,9.745544
2023-11-19T02:16:44.124Z,9.745618
2023-11-19T02:17:44.050Z,9.745521
2023-11-19T02:18:44.011Z,9.745623
2023-11-19T02:19:44.014Z,9.745349
2023-11-19T02:20:44.026Z,9.745422
2023-11-19T02:21:43.995Z,9.745440
2023-11-19T02:22:43.991Z,9.745411
2023-11-19T02:23:43.974Z,9.745305
2023-11-19T02:24:43.965Z,9.745319
2023-11-19T02:25:43.986Z,9.745352
2023-11-19T02:26:43.948Z,9.745661
2023-11-19T02:27:43.946Z,9.745639
2023-11-19T02:28:43.953Z,9.745605
2023-11-19T02:29:43.965Z,9.745673
2023-11-19T02:30:43.959Z,9.745410
2023-11-19T02:31:44.000Z,9.745484
2023-11-19T02:32:44.043Z,9.745473
2023-11-19T02:33:43.903Z,9.745414
2023-11-19T02:34:43.921Z,9.745239
2023-11-19T02:35:43.941Z,9.745273
2023-11-19T02:36:43.866Z,9.745213
2023-11-19T02:37:43.869Z,9.745297
2023-11-19T02:38:43.855Z,9.745347
2023-11-19T02:39:43.875Z,9.745405
2023-11-19T02:40:43.847Z,9.745333
2023-11-19T02:41:43.838Z,9.745430
2023-11-19T02:42:43.832Z,9.745877
2023-11-19T02:43:43.852Z,9.745502
2023-11-19T02:44:43.837Z,9.745323
2023-11-19T02:45:43.816Z,9.745326
2023-11-19T02:46:43.884Z,9.745223
2023-11-19T02:47:43.823Z,9.745050
2023-11-19T02:48:43.802Z,9.744989
2023-11-19T02:49:43.779Z,9.744979
2023-11-19T02:50:43.770Z,9.745036
2023-11-19T02:51:43.758Z,9.744994
2023-11-19T02:52:43.749Z,9.745105
2023-11-19T02:53:43.773Z,9.745322
2023-11-19T02:54:43.741Z,9.745403
2023-11-19T02:55:43.729Z,9.745228
2023-11-19T02:56:43.724Z,9.745411
2023-11-19T02:57:43.716Z,9.745419
2023-11-19T02:58:43.743Z,9.745461
2023-11-19T02:59:43.702Z,9.745494
2023-11-19T03:00:43.722Z,9.745193
2023-11-19T03:01:43.759Z,9.745173
2023-11-19T03:02:43.789Z,9.745399
2023-11-19T03:03:43.789Z,9.745152
2023-11-19T03:04:43.678Z,9.745400
2023-11-19T03:05:43.657Z,9.744813
2023-11-19T03:06:43.645Z,9.744705
2023-11-19T03:07:43.662Z,9.745324
2023-11-19T03:08:43.630Z,9.745434
2023-11-19T03:09:43.626Z,9.745635
2023-11-19T03:10:43.632Z,9.745420
2023-11-19T03:11:43.619Z,9.745353
2023-11-19T03:12:43.617Z,9.745586
2023-11-19T03:13:43.595Z,9.745874
2023-11-19T03:14:43.593Z,9.745790
2023-11-19T03:15:43.625Z,9.745780
2023-11-19T03:16:43.648Z,9.745656
2023-11-19T03:17:43.625Z,9.745804
2023-11-19T03:18:43.554Z,9.745954
2023-11-19T03:19:43.560Z,9.745964
2023-11-19T03:20:43.542Z,9.745853
2023-11-19T03:21:43.556Z,9.745368
2023-11-19T03:22:43.516Z,9.745342
2023-11-19T03:23:43.510Z,9.745439
2023-11-19T03:24:43.499Z,9.745453
2023-11-19T03:25:43.497Z,9.745450
2023-11-19T03:26:43.514Z,9.745442
2023-11-19T03:27:43.482Z,9.745729
2023-11-19T03:28:43.470Z,9.745724
2023-11-19T03:29:43.471Z,9.745587
2023-11-19T03:30:43.474Z,9.745400
2023-11-19T03:31:43.476Z,9.745666
2023-11-19T03:32:43.459Z,9.745929
2023-11-19T03:33:43.469Z,9.745940
2023-11-19T03:34:43.467Z,9.745996
2023-11-19T03:35:43.451Z,9.746040
2023-11-19T03:36:43.436Z,9.745502
2023-11-19T03:37:43.402Z,9.745234
2023-11-19T03:38:43.404Z,9.745310
2023-11-19T03:39:43.385Z,9.745296
2023-11-19T03:40:43.410Z,9.745239
2023-11-19T03:41:43.370Z,9.745279
2023-11-19T03:42:43.445Z,9.745149
2023-11-19T03:43:43.373Z,9.745319
2023-11-19T03:44:43.351Z,9.745299
2023-11-19T03:45:43.421Z,9.745274
2023-11-19T03:46:43.374Z,9.745102
2023-11-19T03:47:44.351Z,9.745343
2023-11-19T03:48:43.329Z,9.745295
2023-11-19T03:49:43.310Z,9.745415
2023-11-19T03:50:43.334Z,9.745399
2023-11-19T03:51:43.302Z,9.745610
2023-11-19T03:52:44.812Z,9.745564
2023-11-19T03:53:44.289Z,9.745520
2023-11-19T03:54:43.303Z,9.745561
2023-11-19T03:55:43.300Z,9.745565
2023-11-19T03:56:43.275Z,9.745424
2023-11-19T03:57:43.259Z,9.745277
2023-11-19T03:58:43.251Z,9.745271
2023-11-19T03:59:43.272Z,9.745431
2023-11-19T04:00:43.231Z,9.745785
2023-11-19T04:01:43.257Z,9.745677
2023-11-19T04:02:43.254Z,9.745508
2023-11-19T04:04:44.273Z,9.745509
2023-11-19T04:05:43.206Z,9.745594
2023-11-19T04:06:43.204Z,9.745707
2023-11-19T04:07:43.182Z,9.745551
2023-11-19T04:08:43.207Z,9.745456
2023-11-19T04:09:43.192Z,9.745382
2023-11-19T04:10:43.159Z,9.745367
2023-11-19T04:11:43.151Z,9.745600
2023-11-19T04:12:43.143Z,9.745780
2023-11-19T04:13:43.167Z,9.745647
2023-11-19T04:14:43.131Z,9.745569
2023-11-19T04:15:43.113Z,9.745549
2023-11-19T04:16:44.170Z,9.745861
2023-11-19T04:17:43.114Z,9.745766
2023-11-19T04:18:43.120Z,9.745467
2023-11-19T04:19:43.099Z,9.745753
2023-11-19T04:20:43.080Z,9.745776
2023-11-19T04:21:43.085Z,9.745356
2023-11-19T04:22:43.096Z,9.745473
2023-11-19T04:23:43.084Z,9.745362
2023-11-19T04:24:43.047Z,9.745310
2023-11-19T04:25:43.087Z,9.745437
2023-11-19T04:26:43.049Z,9.745389
2023-11-19T04:27:43.090Z,9.745481
2023-11-19T04:28:43.045Z,9.745311
2023-11-19T04:29:43.005Z,9.745263
2023-11-19T04:30:43.030Z,9.745575
2023-11-19T04:31:43.064Z,9.745576
2023-11-19T04:32:43.039Z,9.745637
2023-11-19T04:33:42.982Z,9.745481
2023-11-19T04:34:42.991Z,9.745452
2023-11-19T04:35:42.977Z,9.745492
2023-11-19T04:36:43.038Z,9.745608
2023-11-19T04:37:42.994Z,9.745602
2023-11-19T04:38:42.977Z,9.745609
2023-11-19T04:39:42.971Z,9.745639
2023-11-19T04:40:42.980Z,9.745742
2023-11-19T04:41:42.961Z,9.745570
2023-11-19T04:42:42.907Z,9.745399
2023-11-19T04:43:42.906Z,9.745227
2023-11-19T04:44:42.895Z,9.745384
2023-11-19T04:45:42.897Z,9.745370
2023-11-19T04:46:42.948Z,9.745450
2023-11-19T04:47:42.885Z,9.745479
2023-11-19T04:48:43.061Z,9.745490
2023-11-19T04:49:42.854Z,9.745483
2023-11-19T04:50:42.848Z,9.745392
2023-11-19T04:51:42.870Z,9.745411
2023-11-19T04:52:42.840Z,9.745230
2023-11-19T04:53:42.830Z,9.745299
2023-11-19T04:54:42.839Z,9.745528
2023-11-19T04:55:42.842Z,9.745143
2023-11-19T04:56:42.832Z,9.745190
2023-11-19T04:57:42.799Z,9.745359
2023-11-19T04:58:42.821Z,9.745446
2023-11-19T04:59:43.124Z,9.745493
2023-11-19T05:00:42.813Z,9.745497
2023-11-19T05:01:42.765Z,9.745436
2023-11-19T05:02:42.825Z,9.745490
2023-11-19T05:03:42.877Z,9.745404
2023-11-19T05:04:42.818Z,9.745223
2023-11-19T05:05:42.768Z,9.745287
2023-11-19T05:06:42.728Z,9.745341
2023-11-19T05:07:42.734Z,9.745567
2023-11-19T05:08:42.710Z,9.745541
2023-11-19T05:09:42.723Z,9.745599
2023-11-19T05:10:42.747Z,9.745594
2023-11-19T05:12:43.689Z,9.745329
2023-11-19T05:13:42.677Z,9.745538
2023-11-19T05:14:42.689Z,9.745495
2023-11-19T05:15:42.649Z,9.745988
2023-11-19T05:16:42.719Z,9.745721
2023-11-19T05:17:42.731Z,9.745642
2023-11-19T05:18:44.248Z,9.745652
2023-11-19T05:19:43.654Z,9.745693
2023-11-19T05:20:42.618Z,9.745331
2023-11-19T05:21:42.620Z,9.745337
2023-11-19T05:22:42.600Z,9.745165
2023-11-19T05:23:42.620Z,9.744774
2023-11-19T05:24:42.616Z,9.744622
2023-11-19T05:25:42.589Z,9.745126
2023-11-19T05:26:42.598Z,9.744656
2023-11-19T05:27:42.562Z,9.744724
2023-11-19T05:28:42.586Z,9.745100
2023-11-19T05:29:42.548Z,9.745215
2023-11-19T05:30:42.568Z,9.745410
2023-11-19T05:31:45.109Z,9.745125
2023-11-19T05:32:43.535Z,9.745557
2023-11-19T05:33:42.568Z,9.745755
2023-11-19T05:35:43.502Z,9.745519
2023-11-19T05:36:42.491Z,9.745206
2023-11-19T05:37:42.538Z,9.745115
2023-11-19T05:38:42.502Z,9.745172
2023-11-19T05:39:43.476Z,9.745331
2023-11-19T05:40:42.545Z,9.745327
2023-11-19T05:41:42.457Z,9.745751
2023-11-19T05:42:42.485Z,9.745064
2023-11-19T05:43:42.512Z,9.745415
2023-11-19T05:44:42.452Z,9.745425
2023-11-19T05:45:42.425Z,9.745462
2023-11-19T05:46:42.475Z,9.745647
2023-11-19T05:47:42.558Z,9.745707
2023-11-19T05:48:42.405Z,9.745892
2023-11-19T05:49:42.399Z,9.745704
2023-11-19T05:50:42.392Z,9.745483
2023-11-19T05:51:42.417Z,9.745570
2023-11-19T05:52:42.438Z,9.745723
2023-11-19T05:53:42.370Z,9.746238
2023-11-19T05:54:42.377Z,9.745920
2023-11-19T05:55:42.362Z,9.745717
2023-11-19T05:56:42.369Z,9.745376
2023-11-19T05:58:43.326Z,9.745168
2023-11-19T05:59:42.320Z,9.745373
2023-11-19T06:00:42.313Z,9.745213
2023-11-19T06:01:42.367Z,9.745139
2023-11-19T06:02:42.432Z,9.745338
2023-11-19T06:03:42.396Z,9.745445
2023-11-19T06:04:42.307Z,9.745475
2023-11-19T06:05:42.306Z,9.745405
2023-11-19T06:06:42.295Z,9.745242
2023-11-19T06:07:42.258Z,9.745204
2023-11-19T06:08:42.245Z,9.745282
2023-11-19T06:09:42.241Z,9.745240
2023-11-19T06:10:42.262Z,9.745548
2023-11-19T06:11:42.230Z,9.745455
2023-11-19T06:12:42.568Z,9.745244
2023-11-19T06:13:42.253Z,9.745428
2023-11-19T06:14:42.199Z,9.745540
2023-11-19T06:15:42.226Z,9.745582
2023-11-19T06:16:42.247Z,9.745754
2023-11-19T06:17:42.292Z,9.745524
2023-11-19T06:18:42.258Z,9.745395
2023-11-19T06:19:42.198Z,9.745003
2023-11-19T06:20:43.997Z,9.745169
2023-11-19T06:21:43.149Z,9.745296
2023-11-19T06:22:42.182Z,9.745096
2023-11-19T06:23:42.132Z,9.745479
2023-11-19T06:24:42.216Z,9.745287
2023-11-19T06:25:42.232Z,9.745229
2023-11-19T06:26:42.104Z,9.745266
2023-11-19T06:27:42.125Z,9.745251
2023-11-19T06:28:42.150Z,9.745057
2023-11-19T06:29:42.108Z,9.745330
2023-11-19T06:30:42.075Z,9.745390
2023-11-19T06:31:42.133Z,9.745173
2023-11-19T06:32:42.091Z,9.745362
2023-11-19T06:33:42.076Z,9.745212
2023-11-19T06:34:42.093Z,9.745343
2023-11-19T06:35:42.045Z,9.745313
2023-11-19T06:36:42.051Z,9.745275
2023-11-19T06:37:42.127Z,9.745301
2023-11-19T06:38:42.048Z,9.745741
2023-11-19T06:39:42.037Z,9.745738
2023-11-19T06:40:42.054Z,9.745560
2023-11-19T06:41:41.995Z,9.745496
2023-11-19T06:42:41.993Z,9.745376
2023-11-19T06:43:43.036Z,9.745351
2023-11-19T06:44:42.976Z,9.745519
2023-11-19T06:45:41.962Z,9.745658
2023-11-19T06:46:42.065Z,9.745758
2023-11-19T06:47:41.985Z,9.745755
2023-11-19T06:48:41.972Z,9.745555
2023-11-19T06:49:41.997Z,9.745582
2023-11-19T06:50:41.924Z,9.745433
2023-11-19T06:51:41.917Z,9.745387
2023-11-19T06:52:41.941Z,9.745683
2023-11-19T06:53:41.904Z,9.745731
2023-11-19T06:54:41.893Z,9.745418
2023-11-19T06:55:41.924Z,9.745505
2023-11-19T06:56:41.888Z,9.745589
2023-11-19T06:57:41.900Z,9.745550
2023-11-19T06:58:41.862Z,9.745673
2023-11-19T06:59:41.872Z,9.745783
2023-11-19T07:00:41.881Z,9.745890
2023-11-19T07:01:41.841Z,9.745890
2023-11-19T07:02:41.958Z,9.745890
2023-11-19T07:03:41.953Z,9.745890
2023-11-19T07:04:41.820Z,9.745890
2023-11-19T07:05:41.838Z,9.745890
2023-11-19T07:06:41.805Z,9.745890
2023-11-19T07:07:42.029Z,9.745890
2023-11-19T07:08:41.805Z,9.745890
2023-11-19T07:09:41.779Z,9.745890
2023-11-19T07:10:41.780Z,9.745890
2023-11-19T07:11:41.831Z,9.745890
2023-11-19T07:12:41.787Z,9.745890
2023-11-19T07:13:41.747Z,9.745890
2023-11-19T07:14:41.779Z,9.745890
2023-11-19T07:15:41.763Z,9.745890
2023-11-19T07:16:41.757Z,9.745890
2023-11-19T07:17:41.825Z,9.746183
2023-11-19T07:18:41.737Z,9.745890
2023-11-19T07:19:41.717Z,9.745848
2023-11-19T07:20:41.751Z,9.745767
2023-11-19T07:21:41.720Z,9.745846
2023-11-19T07:22:41.696Z,9.746120
2023-11-19T07:23:41.727Z,9.745546
2023-11-19T07:24:41.698Z,9.745294
2023-11-19T07:25:41.692Z,9.745505
2023-11-19T07:26:41.705Z,9.745680
2023-11-19T07:27:41.637Z,9.745583
2023-11-19T07:28:42.646Z,9.745647
2023-11-19T07:29:41.634Z,9.745403
2023-11-19T07:30:41.666Z,9.745497
2023-11-19T07:31:41.611Z,9.745675
2023-11-19T07:32:41.649Z,9.745754
2023-11-19T07:33:41.611Z,9.745518
2023-11-19T07:34:41.591Z,9.745403
2023-11-19T07:35:41.634Z,9.745067
2023-11-19T07:36:41.572Z,9.745366
2023-11-19T07:37:41.562Z,9.745480
2023-11-19T07:38:41.556Z,9.745558
2023-11-19T07:39:41.590Z,9.745399
2023-11-19T07:40:56.575Z,9.745684
2023-11-19T07:41:42.565Z,9.745685
2023-11-19T07:42:41.530Z,9.745551
2023-11-19T07:43:41.529Z,9.745621
2023-11-19T07:44:41.548Z,9.745575
2023-11-19T07:45:41.503Z,9.746567
2023-11-19T07:46:41.505Z,9.746365
2023-11-19T07:47:41.603Z,9.746075
2023-11-19T07:48:41.481Z,9.745758
2023-11-19T07:49:42.571Z,9.745535
2023-11-19T07:50:41.480Z,9.745751
2023-11-19T07:51:41.451Z,9.745440
2023-11-19T07:52:41.452Z,9.745440
2023-11-19T07:53:41.581Z,9.745440
2023-11-19T07:54:41.464Z,9.745440
2023-11-19T07:55:42.759Z,9.745440
2023-11-19T07:56:41.505Z,9.745440
2023-11-19T07:57:41.417Z,9.745440
2023-11-19T07:59:13.370Z,9.745440
2023-11-19T07:59:41.457Z,9.745440
2023-11-19T08:00:41.381Z,9.745440
2023-11-19T08:01:41.378Z,9.745440
2023-11-19T08:02:41.543Z,9.745440
2023-11-19T08:03:41.480Z,9.745440
2023-11-19T08:04:41.547Z,9.745440
2023-11-19T08:05:41.396Z,9.745440
2023-11-19T08:06:41.349Z,9.745440
2023-11-19T08:07:41.349Z,9.745440
2023-11-19T08:08:41.368Z,9.745440
2023-11-19T08:09:41.336Z,9.745440
2023-11-19T08:10:41.322Z,9.745440
2023-11-19T08:11:41.340Z,9.745440
2023-11-19T08:12:41.336Z,9.745440
2023-11-19T08:13:41.313Z,9.745440
2023-11-19T08:14:41.306Z,9.745440
2023-11-19T08:15:41.276Z,9.745440
2023-11-19T08:16:41.299Z,9.745440
2023-11-19T08:17:41.465Z,9.745647
2023-11-19T08:18:41.259Z,9.745563
2023-11-19T08:19:41.258Z,9.745459
2023-11-19T08:20:41.262Z,9.745320
2023-11-19T08:21:41.227Z,9.745457
2023-11-19T08:22:41.249Z,9.745543
2023-11-19T08:23:41.278Z,9.745732
2023-11-19T08:24:41.205Z,9.745776
2023-11-19T08:25:41.201Z,9.745618
2023-11-19T08:26:41.246Z,9.745432
2023-11-19T08:27:41.210Z,9.745459
2023-11-19T08:28:41.183Z,9.745602
2023-11-19T08:29:41.185Z,9.745868
2023-11-19T08:30:41.158Z,9.745932
2023-11-19T08:31:41.178Z,9.745471
2023-11-19T08:32:41.210Z,9.745558
2023-11-19T08:33:41.143Z,9.745589
2023-11-19T08:34:41.132Z,9.745593
2023-11-19T08:35:41.132Z,9.745552
2023-11-19T08:36:41.140Z,9.745509
2023-11-19T08:37:41.114Z,9.745572
2023-11-19T08:38:41.108Z,9.745570
2023-11-19T08:39:41.086Z,9.745583
2023-11-19T08:40:41.089Z,9.745741
2023-11-19T08:41:41.144Z,9.745746
2023-11-19T08:42:41.077Z,9.745647
2023-11-19T08:43:41.056Z,9.745583
2023-11-19T08:44:41.052Z,9.745547
2023-11-19T08:45:41.068Z,9.745472
2023-11-19T08:46:41.061Z,9.745440
2023-11-19T08:47:41.087Z,9.745419
2023-11-19T08:48:41.027Z,9.745337
2023-11-19T08:49:41.010Z,9.745442
2023-11-19T08:50:41.066Z,9.745551
2023-11-19T08:51:41.000Z,9.745522
2023-11-19T08:52:40.999Z,9.745563
2023-11-19T08:53:40.987Z,9.745365
2023-11-19T08:54:40.969Z,9.745427
2023-11-19T08:55:41.020Z,9.745319
2023-11-19T08:56:41.012Z,9.745275
2023-11-19T08:57:40.942Z,9.745415
2023-11-19T08:58:40.932Z,9.745457
2023-11-19T08:59:41.009Z,9.745522
2023-11-19T09:00:40.943Z,9.745440
2023-11-19T09:01:40.941Z,9.745451
2023-11-19T09:02:41.018Z,9.745524
2023-11-19T09:03:40.968Z,9.745580
2023-11-19T09:04:40.991Z,9.745401
2023-11-19T09:05:40.894Z,9.745429
2023-11-19T09:06:40.895Z,9.744965
2023-11-19T09:07:40.858Z,9.745098
2023-11-19T09:08:40.894Z,9.745462
2023-11-19T09:09:40.874Z,9.745381
2023-11-19T09:10:40.852Z,9.745269
2023-11-19T09:11:40.921Z,9.745294
2023-11-19T09:12:40.865Z,9.745404
2023-11-19T09:13:40.858Z,9.745407
2023-11-19T09:14:40.879Z,9.745525
2023-11-19T09:15:40.876Z,9.745486
2023-11-19T09:16:40.802Z,9.745390
2023-11-19T09:17:40.879Z,9.745572
2023-11-19T09:18:40.827Z,9.745493
2023-11-19T09:19:40.770Z,9.745490
2023-11-19T09:20:40.959Z,9.745573
2023-11-19T09:21:40.750Z,9.745456
2023-11-19T09:22:40.750Z,9.745263
2023-11-19T09:23:40.800Z,9.745844
2023-11-19T09:24:40.740Z,9.745508
2023-11-19T09:26:41.748Z,9.745456
2023-11-19T09:27:40.716Z,9.745597
2023-11-19T09:28:40.733Z,9.745415
2023-11-19T09:29:40.726Z,9.745451
2023-11-19T09:30:40.698Z,9.745184
2023-11-19T09:31:40.684Z,9.745257
2023-11-19T09:32:40.867Z,9.745350
2023-11-19T09:33:40.727Z,9.745295
2023-11-19T09:34:40.673Z,9.745296
2023-11-19T09:35:40.666Z,9.745458
2023-11-19T09:36:40.645Z,9.745554
2023-11-19T09:37:40.672Z,9.745537
2023-11-19T09:38:40.640Z,9.745437
2023-11-19T09:39:40.612Z,9.745268
2023-11-19T09:40:40.609Z,9.745371
2023-11-19T09:41:40.621Z,9.745488
2023-11-19T09:42:40.624Z,9.745438
2023-11-19T09:43:40.584Z,9.745512
2023-11-19T09:44:40.605Z,9.745425
2023-11-19T09:45:40.647Z,9.745378
2023-11-19T09:46:40.597Z,9.745501
2023-11-19T09:47:40.665Z,9.745331
2023-11-19T09:48:40.557Z,9.745400
2023-11-19T09:49:40.542Z,9.745442
2023-11-19T09:50:40.582Z,9.745503
2023-11-19T09:51:40.556Z,9.745318
2023-11-19T09:52:40.528Z,9.745396
2023-11-19T09:53:40.543Z,9.745555
2023-11-19T09:54:40.533Z,9.745296
2023-11-19T09:55:40.500Z,9.745429
2023-11-19T09:56:40.531Z,9.745495
2023-11-19T09:57:40.474Z,9.745377
2023-11-19T09:58:40.475Z,9.745300
2023-11-19T09:59:40.482Z,9.745485
2023-11-19T10:00:40.481Z,9.745408
2023-11-19T10:01:40.504Z,9.745497
2023-11-19T10:02:40.720Z,9.745569
2023-11-19T10:03:40.521Z,9.745549
2023-11-19T10:04:40.477Z,9.745628
2023-11-19T10:05:40.505Z,9.745534
2023-11-19T10:06:40.410Z,9.745507
2023-11-19T10:07:40.397Z,9.745737
2023-11-19T10:08:40.464Z,9.745420
2023-11-19T10:09:40.445Z,9.745425
2023-11-19T10:10:40.401Z,9.745419
2023-11-19T10:11:40.447Z,9.745070
2023-11-19T10:13:42.359Z,9.745274
2023-11-19T10:14:41.388Z,9.745296
2023-11-19T10:15:40.374Z,9.745458
2023-11-19T10:16:40.330Z,9.745385
2023-11-19T10:17:40.374Z,9.745655
2023-11-19T10:18:41.074Z,9.745309
2023-11-19T10:19:41.338Z,9.745318
2023-11-19T10:20:40.316Z,9.745275
2023-11-19T10:21:40.299Z,9.745171
2023-11-19T10:22:40.288Z,9.745171
2023-11-19T10:23:40.292Z,9.745018
2023-11-19T10:24:43.603Z,9.745018
2023-11-19T10:25:41.269Z,9.745018
2023-11-19T10:26:40.269Z,9.745019
2023-11-19T10:27:40.247Z,9.745287
2023-11-19T10:28:40.263Z,9.745325
2023-11-19T10:29:40.305Z,9.745325
2023-11-19T10:30:40.220Z,9.745325
2023-11-19T10:31:40.216Z,9.745325
2023-11-19T10:32:40.250Z,9.745325
2023-11-19T10:33:40.271Z,9.745325
2023-11-19T10:34:40.218Z,9.745325
2023-11-19T10:35:40.188Z,9.745325
2023-11-19T10:36:40.173Z,9.745301
2023-11-19T10:37:40.176Z,9.745386
2023-11-19T10:38:40.207Z,9.745408
2023-11-19T10:39:40.154Z,9.745408
2023-11-19T10:40:40.145Z,9.745408
2023-11-19T10:41:40.178Z,9.745408
2023-11-19T10:42:40.136Z,9.745408
2023-11-19T10:43:40.209Z,9.745408
2023-11-19T10:44:40.152Z,9.745408
2023-11-19T10:45:40.163Z,9.745408
2023-11-19T10:46:40.253Z,9.745408
2023-11-19T10:47:43.290Z,9.745408
2023-11-19T10:48:40.140Z,9.745408
2023-11-19T10:49:40.074Z,9.745340
2023-11-19T10:50:40.106Z,9.744905
2023-11-19T10:51:40.067Z,9.744801
2023-11-19T10:52:40.124Z,9.745086
2023-11-19T10:53:40.263Z,9.745359
2023-11-19T10:54:41.035Z,9.745744
2023-11-19T10:55:40.024Z,9.745639
2023-11-19T10:56:40.070Z,9.746120
2023-11-19T10:57:40.038Z,9.745538
2023-11-19T10:58:40.015Z,9.745330
2023-11-19T10:59:40.018Z,9.745517
2023-11-19T11:00:39.986Z,9.745563
2023-11-19T11:01:40.040Z,9.745495
2023-11-19T11:02:40.055Z,9.745419
2023-11-19T11:03:40.112Z,9.745501
2023-11-19T11:04:40.023Z,9.745502
2023-11-19T11:05:40.004Z,9.745554
2023-11-19T11:06:39.986Z,9.745425
2023-11-19T11:07:41.639Z,9.745553
2023-11-19T11:08:39.997Z,9.745406
2023-11-19T11:09:40.113Z,9.745467
2023-11-19T11:10:56.557Z,9.745549
2023-11-19T11:11:41.941Z,9.745405
2023-11-19T11:12:40.004Z,9.745437
2023-11-19T11:13:39.942Z,9.745561
2023-11-19T11:14:39.885Z,9.745604
2023-11-19T11:15:39.989Z,9.745428
2023-11-19T11:16:39.992Z,9.745330
2023-11-19T11:17:40.052Z,9.745399
2023-11-19T11:18:40.015Z,9.745269
2023-11-19T11:19:39.882Z,9.745327
2023-11-19T11:20:39.949Z,9.745612
2023-11-19T11:21:39.885Z,9.745268
2023-11-19T11:22:40.747Z,9.745547
2023-11-19T11:23:39.816Z,9.745554
2023-11-19T11:24:39.885Z,9.745494
2023-11-19T11:25:39.836Z,9.745599
2023-11-19T11:26:39.818Z,9.745563
2023-11-19T11:27:39.865Z,9.745593
2023-11-19T11:28:39.782Z,9.745596
2023-11-19T11:29:39.797Z,9.745859
2023-11-19T11:30:39.834Z,9.745557
2023-11-19T11:31:39.778Z,9.745396
2023-11-19T11:32:39.815Z,9.745100
2023-11-19T11:33:39.772Z,9.745620
2023-11-19T11:34:39.779Z,9.745666
2023-11-19T11:35:39.727Z,9.745617
2023-11-19T11:36:39.730Z,9.745471
2023-11-19T11:37:39.716Z,9.745633
2023-11-19T11:38:39.700Z,9.745461
2023-11-19T11:39:39.723Z,9.745973
2023-11-19T11:40:39.681Z,9.745823
2023-11-19T11:41:39.684Z,9.745624
2023-11-19T11:42:39.704Z,9.745651
2023-11-19T11:43:39.689Z,9.745665
2023-11-19T11:44:39.673Z,9.746087
2023-11-19T11:45:39.855Z,9.745844
2023-11-19T11:46:39.747Z,9.745916
2023-11-19T11:47:39.663Z,9.745797
2023-11-19T11:48:39.662Z,9.745816
2023-11-19T11:49:39.613Z,9.745218
2023-11-19T11:50:39.610Z,9.745255
2023-11-19T11:51:39.617Z,9.745445
2023-11-19T11:52:39.591Z,9.745610
2023-11-19T11:53:39.616Z,9.745417
2023-11-19T11:54:39.584Z,9.745440